Time;durP1;ratioP1;P1;durP2;ratioP2;P2;SDS_P1;SDS_P2;PMS_P1;PMS_P2;Temp;Humidity;BMP_temperature;BMP_pressure;BME280_temperature;BME280_humidity;BME280_pressure;Samples;Min_cycle;Max_cycle;Signal;HPM_P1;HPM_P2
2023/11/27 00:03:32;;;;;;;6.47;5.57;;;;;;;;;;10416258;27;20066;-55
2023/11/27 00:08:30;;;;;;;7.75;5.70;;;;;;;;;;10415839;27;20504;-55
2023/11/27 00:13:30;;;;;;;6.10;5.43;;;;;;;;;;10416140;27;20534;-53
2023/11/27 00:18:28;;;;;;;6.60;5.90;;;;;;;;;;10415913;27;20071;-53
2023/11/27 00:23:26;;;;;;;7.95;6.55;;;;;;;;;;10415690;27;20508;-59
2023/11/27 00:28:24;;;;;;;7.55;6.82;;;;;;;;;;10416222;27;20074;-55
2023/11/27 00:33:24;;;;;;;8.00;7.20;;;;;;;;;;10416159;27;20550;-54
2023/11/27 00:38:22;;;;;;;6.68;6.07;;;;;;;;;;10416149;27;20074;-52
2023/11/27 00:43:21;;;;;;;8.85;7.80;;;;;;;;;;10414434;27;20090;-52
2023/11/27 00:48:19;;;;;;;7.00;6.38;;;;;;;;;;10416564;27;20071;-52
2023/11/27 00:53:18;;;;;;;5.97;5.47;;;;;;;;;;10395066;27;20103;-56
2023/11/27 00:58:18;;;;;;;7.25;6.10;;;;;;;;;;10412130;28;20153;-50
2023/11/27 01:03:16;;;;;;;5.88;5.30;;;;;;;;;;10412690;28;20078;-56
2023/11/27 01:08:15;;;;;;;5.45;4.80;;;;;;;;;;10414150;28;20152;-53
2023/11/27 01:13:15;;;;;;;6.05;5.55;;;;;;;;;;10414409;28;20079;-56
2023/11/27 01:18:13;;;;;;;4.63;4.22;;;;;;;;;;10409557;28;20481;-54
2023/11/27 01:23:11;;;;;;;6.35;5.45;;;;;;;;;;10415586;28;20075;-54
2023/11/27 01:28:10;;;;;;;6.13;5.63;;;;;;;;;;10396407;28;20075;-53
2023/11/27 01:33:12;;;;;;;7.00;6.07;;;;;;;;;;10409154;28;20083;-55
2023/11/27 01:38:10;;;;;;;6.35;5.70;;;;;;;;;;10418201;27;20476;-55
2023/11/27 01:43:14;;;;;;;7.60;6.95;;;;;;;;;;10423397;27;20093;-53
2023/11/27 01:48:14;;;;;;;8.80;6.87;;;;;;;;;;10422173;27;20090;-53
2023/11/27 01:53:12;;;;;;;6.55;5.88;;;;;;;;;;10419535;27;20078;-55
2023/11/27 01:58:11;;;;;;;9.57;8.68;;;;;;;;;;10421552;27;20546;-56
2023/11/27 02:03:10;;;;;;;6.47;5.93;;;;;;;;;;10401832;27;20051;-56
2023/11/27 02:08:09;;;;;;;4.95;4.50;;;;;;;;;;10420843;27;20079;-55
2023/11/27 02:13:10;;;;;;;6.28;5.15;;;;;;;;;;10420520;27;20104;-56
2023/11/27 02:18:08;;;;;;;11.43;7.93;;;;;;;;;;10424583;27;20074;-55
2023/11/27 02:23:07;;;;;;;120.32;80.47;;;;;;;;;;10420448;27;20071;-52
2023/11/27 02:28:06;;;;;;;31.45;17.80;;;;;;;;;;10403812;27;20040;-56
2023/11/27 02:33:06;;;;;;;40.40;28.52;;;;;;;;;;10419523;27;20071;-53
2023/11/27 02:38:04;;;;;;;7.55;6.80;;;;;;;;;;10421249;27;20595;-53
2023/11/27 02:43:03;;;;;;;7.22;6.50;;;;;;;;;;10419638;27;20066;-55
2023/11/27 02:48:04;;;;;;;7.72;5.88;;;;;;;;;;10399802;27;20081;-51
2023/11/27 02:53:02;;;;;;;6.50;5.90;;;;;;;;;;10415692;27;20078;-55
2023/11/27 02:58:01;;;;;;;5.85;5.35;;;;;;;;;;10417889;27;20091;-52
2023/11/27 03:02:59;;;;;;;6.00;5.45;;;;;;;;;;10417813;27;20074;-54
2023/11/27 03:07:59;;;;;;;6.53;5.82;;;;;;;;;;10419254;27;20071;-54
2023/11/27 03:12:57;;;;;;;5.15;4.65;;;;;;;;;;10420231;27;20071;-52
2023/11/27 03:17:57;;;;;;;5.55;5.07;;;;;;;;;;10418506;27;20063;-54
2023/11/27 03:22:56;;;;;;;5.97;5.38;;;;;;;;;;10418774;27;20067;-54
2023/11/27 03:27:55;;;;;;;5.43;4.93;;;;;;;;;;10418245;27;20085;-56
2023/11/27 03:32:54;;;;;;;4.95;4.45;;;;;;;;;;10417347;27;20076;-52
2023/11/27 03:37:52;;;;;;;4.07;3.67;;;;;;;;;;10418238;27;20081;-55
2023/11/27 03:42:50;;;;;;;5.00;4.53;;;;;;;;;;10416368;27;20351;-50
2023/11/27 03:47:50;;;;;;;107.43;43.30;;;;;;;;;;10417668;27;20536;-53
2023/11/27 03:52:48;;;;;;;39.30;19.25;;;;;;;;;;10412152;27;20058;-51
2023/11/27 03:57:46;;;;;;;6.95;6.15;;;;;;;;;;10411894;27;20074;-54
2023/11/27 04:02:45;;;;;;;7.22;6.53;;;;;;;;;;10413509;27;20079;-54
2023/11/27 04:07:44;;;;;;;11.57;9.80;;;;;;;;;;10415834;27;20070;-50
2023/11/27 04:12:43;;;;;;;9.35;8.32;;;;;;;;;;10397599;27;20082;-50
2023/11/27 04:17:41;;;;;;;6.30;5.70;;;;;;;;;;10416506;27;20073;-52
2023/11/27 04:22:41;;;;;;;4.97;4.57;;;;;;;;;;10413090;27;20079;-49
2023/11/27 04:27:41;;;;;;;10.15;9.15;;;;;;;;;;10413638;27;20105;-51
2023/11/27 04:32:39;;;;;;;10.13;7.30;;;;;;;;;;10415036;27;20078;-55
2023/11/27 04:37:37;;;;;;;8.05;7.25;;;;;;;;;;10414969;27;20098;-54
2023/11/27 04:42:35;;;;;;;7.05;6.35;;;;;;;;;;10416489;27;20456;-53
2023/11/27 04:47:35;;;;;;;6.03;5.43;;;;;;;;;;10414446;27;20063;-55
2023/11/27 04:52:33;;;;;;;7.88;7.13;;;;;;;;;;10412687;27;20058;-50
2023/11/27 04:57:32;;;;;;;6.60;6.03;;;;;;;;;;10414429;27;20075;-55
2023/11/27 05:02:30;;;;;;;8.00;7.18;;;;;;;;;;10416441;28;20074;-55
2023/11/27 05:07:30;;;;;;;10.52;7.55;;;;;;;;;;10429218;28;20078;-54
2023/11/27 05:12:28;;;;;;;7.43;6.40;;;;;;;;;;10434898;27;20074;-53
2023/11/27 05:17:31;;;;;;;7.53;6.82;;;;;;;;;;10439926;27;20075;-53
2023/11/27 05:22:31;;;;;;;9.43;7.57;;;;;;;;;;10437630;27;20074;-53
2023/11/27 05:27:29;;;;;;;7.15;5.93;;;;;;;;;;10439704;27;20062;-56
2023/11/27 05:32:28;;;;;;;8.63;7.07;;;;;;;;;;10434248;27;20055;-56
2023/11/27 05:37:26;;;;;;;7.22;6.60;;;;;;;;;;10431450;27;20142;-57
2023/11/27 05:42:27;;;;;;;6.90;5.43;;;;;;;;;;10423741;27;20507;-52
2023/11/27 05:47:25;;;;;;;7.80;6.63;;;;;;;;;;10425289;27;20078;-52
2023/11/27 05:52:24;;;;;;;6.32;5.72;;;;;;;;;;10422696;27;20075;-53
2023/11/27 05:57:22;;;;;;;8.38;7.47;;;;;;;;;;10428604;27;20091;-57
2023/11/27 06:02:21;;;;;;;62.83;39.60;;;;;;;;;;10437427;27;20081;-55
2023/11/27 06:07:20;;;;;;;8.48;7.10;;;;;;;;;;10436739;27;20063;-51
2023/11/27 06:12:19;;;;;;;9.40;7.97;;;;;;;;;;10432579;27;20070;-55
2023/11/27 06:17:17;;;;;;;7.60;7.00;;;;;;;;;;10435623;27;20109;-56
2023/11/27 06:22:16;;;;;;;10.10;8.18;;;;;;;;;;10433266;27;20067;-55
2023/11/27 06:27:15;;;;;;;7.68;7.07;;;;;;;;;;10436890;27;20062;-55
2023/11/27 06:32:14;;;;;;;5.93;5.40;;;;;;;;;;10428383;27;20074;-56
2023/11/27 06:37:12;;;;;;;7.07;6.35;;;;;;;;;;10431113;27;20063;-56
2023/11/27 06:42:13;;;;;;;5.15;4.75;;;;;;;;;;10432667;27;20075;-56
2023/11/27 06:47:11;;;;;;;10.05;8.95;;;;;;;;;;10431595;27;20476;-54
2023/11/27 06:52:09;;;;;;;10.10;8.65;;;;;;;;;;10427500;27;20444;-55
2023/11/27 06:57:08;;;;;;;14.98;9.02;;;;;;;;;;10431189;27;20551;-52
2023/11/27 07:02:08;;;;;;;15.65;11.10;;;;;;;;;;10433508;27;20078;-56
2023/11/27 07:07:08;;;;;;;11.55;9.38;;;;;;;;;;10431248;27;20542;-55
2023/11/27 07:12:07;;;;;;;5.57;5.00;;;;;;;;;;10435164;27;20416;-56
2023/11/27 07:17:06;;;;;;;8.98;8.07;;;;;;;;;;10432242;27;20062;-56
2023/11/27 07:22:07;;;;;;;7.60;6.93;;;;;;;;;;10431951;27;20071;-56
2023/11/27 07:27:05;;;;;;;7.32;6.63;;;;;;;;;;10429152;27;20071;-56
2023/11/27 07:32:04;;;;;;;7.10;6.13;;;;;;;;;;10430116;27;20071;-54
2023/11/27 07:37:02;;;;;;;7.03;6.35;;;;;;;;;;10426569;27;20071;-53
2023/11/27 07:42:01;;;;;;;9.15;7.10;;;;;;;;;;10429715;27;20075;-56
2023/11/27 07:47:00;;;;;;;9.90;7.88;;;;;;;;;;10432995;27;20066;-53
2023/11/27 07:51:58;;;;;;;8.55;6.97;;;;;;;;;;10432678;27;20090;-55
2023/11/27 07:56:57;;;;;;;8.63;7.72;;;;;;;;;;10425493;27;20067;-54
2023/11/27 08:01:58;;;;;;;8.93;8.07;;;;;;;;;;10430680;27;20074;-51
2023/11/27 08:06:56;;;;;;;7.75;7.03;;;;;;;;;;10428577;27;20074;-52
2023/11/27 08:11:54;;;;;;;16.33;11.88;;;;;;;;;;10430599;27;20067;-55
2023/11/27 08:16:52;;;;;;;19.20;12.38;;;;;;;;;;10429929;27;20067;-55
2023/11/27 08:21:53;;;;;;;8.40;7.25;;;;;;;;;;10429482;27;20086;-51
2023/11/27 08:26:52;;;;;;;9.93;8.45;;;;;;;;;;10430452;27;20082;-51
2023/11/27 08:31:53;;;;;;;14.02;10.80;;;;;;;;;;10428775;27;20082;-56
2023/11/27 08:36:53;;;;;;;24.42;13.48;;;;;;;;;;10427854;27;20070;-54
2023/11/27 08:41:51;;;;;;;20.55;13.18;;;;;;;;;;10429513;27;20075;-56
2023/11/27 08:46:50;;;;;;;15.30;10.25;;;;;;;;;;10429136;27;20105;-56
2023/11/27 08:51:48;;;;;;;8.18;6.90;;;;;;;;;;10428849;27;20102;-55
2023/11/27 08:56:48;;;;;;;8.52;7.20;;;;;;;;;;10428419;27;20078;-55
2023/11/27 09:01:46;;;;;;;8.45;6.88;;;;;;;;;;10429532;28;20074;-55
2023/11/27 09:06:44;;;;;;;8.65;7.03;;;;;;;;;;10428772;28;20055;-55
2023/11/27 09:11:43;;;;;;;8.75;7.57;;;;;;;;;;10429022;28;20054;-56
2023/11/27 09:16:42;;;;;;;10.63;8.73;;;;;;;;;;10431709;27;20079;-55
2023/11/27 09:21:41;;;;;;;9.43;8.43;;;;;;;;;;10432214;27;20078;-54
2023/11/27 09:26:39;;;;;;;11.30;9.13;;;;;;;;;;10431942;28;20078;-53
2023/11/27 09:31:37;;;;;;;15.73;10.80;;;;;;;;;;10421849;27;20530;-52
2023/11/27 09:36:40;;;;;;;11.55;9.77;;;;;;;;;;10430190;28;20065;-53
2023/11/27 09:41:44;;;;;;;14.05;10.20;;;;;;;;;;10425968;28;20075;-52
2023/11/27 09:46:43;;;;;;;10.48;8.52;;;;;;;;;;10428790;28;20071;-55
2023/11/27 09:51:46;;;;;;;9.98;8.45;;;;;;;;;;10427200;28;20066;-53
2023/11/27 09:56:45;;;;;;;13.55;10.57;;;;;;;;;;10430467;27;20779;-53
2023/11/27 10:01:43;;;;;;;17.08;12.18;;;;;;;;;;10435315;27;20142;-54
2023/11/27 10:06:43;;;;;;;21.63;14.55;;;;;;;;;;10433857;27;20074;-56
2023/11/27 10:11:42;;;;;;;18.33;15.52;;;;;;;;;;10437039;27;20514;-55
2023/11/27 10:16:41;;;;;;;7.13;6.40;;;;;;;;;;10436911;27;20063;-55
2023/11/27 10:21:41;;;;;;;9.88;8.75;;;;;;;;;;10434648;27;20074;-54
2023/11/27 10:26:42;;;;;;;11.05;7.38;;;;;;;;;;10434964;27;20070;-55
2023/11/27 10:31:40;;;;;;;7.97;7.18;;;;;;;;;;10433225;27;20078;-55
2023/11/27 10:36:39;;;;;;;11.50;8.57;;;;;;;;;;10435705;27;20059;-55
2023/11/27 10:41:38;;;;;;;18.63;11.82;;;;;;;;;;10435844;27;20070;-53
2023/11/27 10:46:39;;;;;;;33.88;20.85;;;;;;;;;;10432162;27;20074;-52
2023/11/27 10:51:38;;;;;;;11.68;8.63;;;;;;;;;;10432931;27;20526;-54
2023/11/27 10:56:38;;;;;;;8.13;7.20;;;;;;;;;;10432324;27;20063;-54
2023/11/27 11:01:39;;;;;;;7.95;6.00;;;;;;;;;;10432724;27;20075;-53
2023/11/27 11:06:43;;;;;;;7.80;6.95;;;;;;;;;;10429169;27;20070;-55
2023/11/27 11:11:43;;;;;;;7.38;5.25;;;;;;;;;;10432148;27;20487;-56
2023/11/27 11:16:47;;;;;;;17.73;10.27;;;;;;;;;;10429161;27;20082;-57
2023/11/27 11:21:51;;;;;;;6.53;5.38;;;;;;;;;;10429000;27;20139;-54
2023/11/27 11:26:56;;;;;;;11.65;9.25;;;;;;;;;;10430813;27;20078;-54
2023/11/27 11:32:04;;;;;;;23.90;12.55;;;;;;;;;;10429379;27;20062;-57
2023/11/27 11:37:04;;;;;;;14.07;10.65;;;;;;;;;;10430349;27;21465;-57
2023/11/27 11:42:03;;;;;;;27.10;15.48;;;;;;;;;;10428785;27;20070;-57
2023/11/27 11:47:08;;;;;;;23.15;14.18;;;;;;;;;;10430442;27;20620;-55
2023/11/27 11:52:09;;;;;;;30.88;20.77;;;;;;;;;;10430130;27;20082;-54
2023/11/27 11:57:14;;;;;;;14.00;11.65;;;;;;;;;;10430426;27;20082;-53
2023/11/27 12:02:18;;;;;;;10.63;8.68;;;;;;;;;;10429139;27;20074;-56
2023/11/27 12:07:16;;;;;;;16.27;11.15;;;;;;;;;;10428558;27;20070;-54
2023/11/27 12:12:15;;;;;;;9.00;6.13;;;;;;;;;;10430739;27;20070;-57
2023/11/27 12:17:15;;;;;;;7.32;6.13;;;;;;;;;;10430707;27;20054;-56
2023/11/27 12:22:20;;;;;;;7.18;6.20;;;;;;;;;;10428740;27;20152;-56
2023/11/27 12:27:22;;;;;;;6.50;5.68;;;;;;;;;;10427326;27;20481;-55
2023/11/27 12:32:24;;;;;;;5.50;5.00;;;;;;;;;;10427424;27;20828;-56
2023/11/27 12:37:28;;;;;;;14.50;9.75;;;;;;;;;;10426948;27;20677;-52
2023/11/27 12:42:28;;;;;;;6.57;5.97;;;;;;;;;;10428619;27;20074;-54
2023/11/27 12:47:28;;;;;;;5.28;4.78;;;;;;;;;;10427408;27;20074;-54
2023/11/27 12:52:26;;;;;;;21.35;14.65;;;;;;;;;;10428880;27;20077;-55
2023/11/27 12:57:25;;;;;;;38.92;24.67;;;;;;;;;;10426601;27;20083;-53
2023/11/27 13:02:26;;;;;;;22.77;14.35;;;;;;;;;;10429279;27;20074;-55
2023/11/27 13:07:26;;;;;;;21.85;13.40;;;;;;;;;;10428691;28;20488;-56
2023/11/27 13:12:25;;;;;;;21.27;14.57;;;;;;;;;;10428936;28;20168;-56
2023/11/27 13:17:24;;;;;;;17.95;11.98;;;;;;;;;;10429156;28;20073;-54
2023/11/27 13:22:23;;;;;;;11.82;9.07;;;;;;;;;;10427159;28;20083;-54
2023/11/27 13:27:24;;;;;;;17.88;16.02;;;;;;;;;;10426434;28;20059;-52
2023/11/27 13:32:24;;;;;;;5.70;5.20;;;;;;;;;;10428077;27;20075;-56
2023/11/27 13:37:23;;;;;;;8.77;7.88;;;;;;;;;;10437210;27;20070;-57
2023/11/27 13:42:24;;;;;;;6.70;6.00;;;;;;;;;;10438153;27;20082;-55
2023/11/27 13:47:22;;;;;;;12.18;9.77;;;;;;;;;;10437127;27;20523;-56
2023/11/27 13:52:21;;;;;;;7.05;5.63;;;;;;;;;;10437619;27;20081;-56
2023/11/27 13:57:27;;;;;;;6.93;6.00;;;;;;;;;;10438802;27;20082;-54
2023/11/27 14:02:28;;;;;;;6.50;5.80;;;;;;;;;;10433983;27;20067;-53
2023/11/27 14:07:27;;;;;;;11.50;8.27;;;;;;;;;;10437025;27;20070;-55
2023/11/27 14:12:38;;;;;;;10.10;8.25;;;;;;;;;;10435930;27;20070;-57
2023/11/27 14:17:40;;;;;;;7.95;7.07;;;;;;;;;;10436939;27;20067;-56
2023/11/27 14:28:09;;;;;;;7.45;6.13;;;;;;;;;;10434326;27;20085;-53
2023/11/27 14:33:09;;;;;;;10.85;8.10;;;;;;;;;;10434406;27;20093;-54
2023/11/27 14:38:08;;;;;;;9.00;8.10;;;;;;;;;;10432652;27;20071;-57
2023/11/27 14:43:06;;;;;;;9.23;8.35;;;;;;;;;;10429869;27;20075;-56
2023/11/27 14:48:04;;;;;;;7.50;6.57;;;;;;;;;;10431533;27;20071;-57
2023/11/27 14:53:04;;;;;;;10.68;9.13;;;;;;;;;;10430777;27;20073;-57
2023/11/27 14:58:02;;;;;;;7.40;6.38;;;;;;;;;;10414206;27;20086;-56
2023/11/27 15:03:00;;;;;;;7.72;6.88;;;;;;;;;;10411927;27;20463;-56
2023/11/27 15:07:59;;;;;;;8.00;7.05;;;;;;;;;;10413449;27;20497;-54
2023/11/27 15:12:59;;;;;;;9.73;8.73;;;;;;;;;;10423067;27;20078;-57
2023/11/27 15:17:58;;;;;;;11.30;10.02;;;;;;;;;;10418300;27;20071;-55
2023/11/27 15:22:57;;;;;;;10.80;9.80;;;;;;;;;;10417056;27;20469;-55
2023/11/27 15:27:56;;;;;;;12.18;10.38;;;;;;;;;;10421358;27;20059;-56
2023/11/27 15:32:57;;;;;;;10.07;9.05;;;;;;;;;;10427684;27;20085;-56
2023/11/27 15:37:55;;;;;;;8.18;7.38;;;;;;;;;;10420405;27;20074;-56
2023/11/27 15:42:54;;;;;;;6.47;5.55;;;;;;;;;;10429159;27;20565;-56
2023/11/27 15:47:55;;;;;;;22.10;13.57;;;;;;;;;;10431840;27;20074;-57
2023/11/27 15:52:56;;;;;;;13.52;8.90;;;;;;;;;;10424996;27;20337;-56
2023/11/27 15:57:54;;;;;;;12.23;10.63;;;;;;;;;;10432673;27;20083;-57
2023/11/27 16:02:55;;;;;;;16.40;12.23;;;;;;;;;;10432121;27;20073;-56
2023/11/27 16:07:55;;;;;;;6.75;6.05;;;;;;;;;;10429730;27;20085;-56
2023/11/27 16:12:53;;;;;;;10.50;8.60;;;;;;;;;;10427587;27;20067;-55
2023/11/27 16:17:52;;;;;;;31.25;19.63;;;;;;;;;;10413791;27;20071;-55
2023/11/27 16:22:59;;;;;;;7.97;6.18;;;;;;;;;;10415342;27;20063;-56
2023/11/27 16:28:03;;;;;;;17.02;10.27;;;;;;;;;;10416455;27;20071;-54
2023/11/27 16:33:03;;;;;;;19.45;11.13;;;;;;;;;;10412540;27;20071;-55
2023/11/27 16:38:03;;;;;;;39.78;20.17;;;;;;;;;;10409553;27;20083;-56
2023/11/27 16:43:02;;;;;;;49.00;27.65;;;;;;;;;;10416078;27;20074;-54
2023/11/27 16:48:03;;;;;;;53.55;30.00;;;;;;;;;;10410486;27;20067;-55
2023/11/27 16:53:06;;;;;;;89.90;50.93;;;;;;;;;;10414940;27;20483;-58
2023/11/27 16:58:06;;;;;;;33.83;20.80;;;;;;;;;;10414613;27;20082;-55
2023/11/27 17:03:06;;;;;;;39.63;23.60;;;;;;;;;;10414439;28;20078;-56
2023/11/27 17:08:09;;;;;;;22.55;16.27;;;;;;;;;;10426181;27;20067;-55
2023/11/27 17:13:10;;;;;;;31.83;21.60;;;;;;;;;;10430061;27;20578;-55
2023/11/27 17:18:09;;;;;;;36.30;23.77;;;;;;;;;;10428832;27;20082;-52
2023/11/27 17:23:10;;;;;;;30.80;18.27;;;;;;;;;;10427641;27;20086;-54
2023/11/27 17:28:11;;;;;;;24.77;16.55;;;;;;;;;;10428276;27;20086;-54
2023/11/27 17:33:10;;;;;;;29.00;19.45;;;;;;;;;;10429435;27;20067;-56
2023/11/27 17:38:09;;;;;;;13.90;10.32;;;;;;;;;;10428351;27;20074;-55
2023/11/27 17:43:10;;;;;;;13.93;10.60;;;;;;;;;;10427508;27;20089;-54
2023/11/27 17:48:09;;;;;;;16.65;12.00;;;;;;;;;;10427248;27;20689;-52
2023/11/27 17:53:07;;;;;;;13.18;11.20;;;;;;;;;;10428713;27;20373;-56
2023/11/27 17:58:08;;;;;;;9.45;8.45;;;;;;;;;;10428632;27;20084;-50
2023/11/27 18:03:06;;;;;;;49.85;29.10;;;;;;;;;;10428214;27;20496;-53
2023/11/27 18:08:04;;;;;;;11.30;7.63;;;;;;;;;;10426799;27;20102;-55
2023/11/27 18:13:04;;;;;;;7.35;6.38;;;;;;;;;;10428735;27;20075;-53
2023/11/27 18:18:04;;;;;;;7.65;6.80;;;;;;;;;;10424424;27;20086;-49
2023/11/27 18:23:02;;;;;;;10.93;6.93;;;;;;;;;;10420858;27;20074;-53
2023/11/27 18:28:00;;;;;;;7.18;6.00;;;;;;;;;;10414061;27;20110;-48
2023/11/27 18:32:58;;;;;;;5.80;4.70;;;;;;;;;;10419674;27;20082;-48
2023/11/27 18:37:59;;;;;;;6.60;5.32;;;;;;;;;;10421594;27;20066;-51
2023/11/27 18:42:57;;;;;;;6.13;5.53;;;;;;;;;;10421022;27;20062;-53
2023/11/27 18:47:56;;;;;;;5.25;4.50;;;;;;;;;;10421616;27;20074;-60
2023/11/27 18:52:54;;;;;;;9.57;7.18;;;;;;;;;;10422181;27;20066;-53
2023/11/27 18:57:54;;;;;;;8.90;7.00;;;;;;;;;;10419866;27;20094;-52
2023/11/27 19:02:52;;;;;;;9.25;7.72;;;;;;;;;;10420498;27;20078;-50
2023/11/27 19:07:51;;;;;;;7.07;6.10;;;;;;;;;;10419355;27;20079;-53
2023/11/27 19:12:51;;;;;;;8.90;4.65;;;;;;;;;;10418446;27;20070;-54
2023/11/27 19:17:51;;;;;;;5.43;4.68;;;;;;;;;;10419735;27;20601;-53
2023/11/27 19:22:49;;;;;;;6.90;5.32;;;;;;;;;;10416948;27;20071;-54
2023/11/27 19:27:48;;;;;;;7.45;3.10;;;;;;;;;;10406812;27;20415;-57
2023/11/27 19:32:46;;;;;;;4.60;4.20;;;;;;;;;;10420265;27;20492;-55
2023/11/27 19:37:46;;;;;;;5.15;4.40;;;;;;;;;;10425659;27;20082;-54
2023/11/27 19:42:44;;;;;;;4.05;3.65;;;;;;;;;;10427539;27;20542;-54
2023/11/27 19:47:43;;;;;;;5.53;4.40;;;;;;;;;;10427939;27;20085;-54
2023/11/27 19:52:41;;;;;;;6.10;5.45;;;;;;;;;;10424871;27;20066;-53
2023/11/27 19:57:42;;;;;;;5.30;4.80;;;;;;;;;;10423015;27;20381;-55
2023/11/27 20:02:41;;;;;;;5.15;4.43;;;;;;;;;;10423681;27;20563;-56
2023/11/27 20:07:39;;;;;;;5.55;4.28;;;;;;;;;;10425211;27;20137;-55
2023/11/27 20:12:37;;;;;;;5.68;4.30;;;;;;;;;;10424349;27;20079;-55
2023/11/27 20:17:37;;;;;;;5.13;3.70;;;;;;;;;;10425779;27;20117;-54
2023/11/27 20:22:36;;;;;;;4.82;4.40;;;;;;;;;;10426802;27;20114;-54
2023/11/27 20:27:34;;;;;;;4.95;4.20;;;;;;;;;;10422493;27;20138;-56
2023/11/27 20:32:32;;;;;;;4.38;3.85;;;;;;;;;;10424681;27;20169;-56
2023/11/27 20:37:32;;;;;;;13.35;9.20;;;;;;;;;;10428798;27;20066;-56
2023/11/27 20:42:31;;;;;;;53.58;30.63;;;;;;;;;;10425705;27;20092;-53
2023/11/27 20:47:30;;;;;;;72.65;35.40;;;;;;;;;;10425748;27;20074;-55
2023/11/27 20:52:28;;;;;;;88.95;44.67;;;;;;;;;;10423273;27;20081;-54
2023/11/27 20:57:28;;;;;;;68.80;39.95;;;;;;;;;;10425500;27;20081;-55
2023/11/27 21:02:26;;;;;;;34.40;21.58;;;;;;;;;;10426457;27;20074;-53
2023/11/27 21:07:24;;;;;;;98.70;57.42;;;;;;;;;;10425816;28;20566;-56
2023/11/27 21:12:22;;;;;;;97.43;56.00;;;;;;;;;;10425971;28;20535;-54
2023/11/27 21:17:23;;;;;;;39.28;25.90;;;;;;;;;;10427666;28;20073;-56
2023/11/27 21:22:21;;;;;;;77.65;46.95;;;;;;;;;;10415514;28;20067;-53
2023/11/27 21:27:23;;;;;;;73.82;45.95;;;;;;;;;;10411240;28;20102;-54
2023/11/27 21:32:23;;;;;;;112.75;68.93;;;;;;;;;;10416951;28;20063;-55
2023/11/27 21:37:22;;;;;;;52.90;32.28;;;;;;;;;;10412281;28;20066;-55
2023/11/27 21:42:22;;;;;;;43.90;26.92;;;;;;;;;;10414691;28;20112;-54
2023/11/27 21:47:20;;;;;;;50.40;31.92;;;;;;;;;;10413103;28;20071;-56
2023/11/27 21:52:19;;;;;;;31.55;19.67;;;;;;;;;;10415350;27;20067;-51
2023/11/27 21:57:18;;;;;;;25.92;15.80;;;;;;;;;;10423010;27;20449;-51
2023/11/27 22:02:18;;;;;;;33.00;22.15;;;;;;;;;;10422654;27;20590;-54
2023/11/27 22:07:17;;;;;;;22.40;15.68;;;;;;;;;;10417697;27;20085;-54
2023/11/27 22:12:17;;;;;;;37.22;24.35;;;;;;;;;;10421936;27;20484;-56
2023/11/27 22:17:15;;;;;;;37.40;22.77;;;;;;;;;;10421694;27;20488;-55
2023/11/27 22:22:13;;;;;;;42.13;23.60;;;;;;;;;;10420521;27;20071;-50
2023/11/27 22:27:11;;;;;;;27.25;17.67;;;;;;;;;;10420612;27;20079;-53
2023/11/27 22:32:11;;;;;;;28.23;17.50;;;;;;;;;;10422367;27;20056;-54
2023/11/27 22:37:09;;;;;;;38.50;23.40;;;;;;;;;;10421544;27;20108;-55
2023/11/27 22:42:07;;;;;;;36.60;23.25;;;;;;;;;;10421191;27;20070;-53
2023/11/27 22:47:06;;;;;;;18.20;11.90;;;;;;;;;;10421305;27;20075;-51
2023/11/27 22:52:06;;;;;;;45.45;24.15;;;;;;;;;;10419645;27;20098;-54
2023/11/27 22:57:04;;;;;;;28.45;15.90;;;;;;;;;;10418369;27;20089;-54
2023/11/27 23:02:02;;;;;;;15.48;9.38;;;;;;;;;;10418971;27;20078;-56
2023/11/27 23:07:01;;;;;;;33.47;18.58;;;;;;;;;;10416173;27;20770;-54
2023/11/27 23:12:00;;;;;;;43.78;22.80;;;;;;;;;;10416810;27;20083;-56
2023/11/27 23:16:59;;;;;;;60.42;30.70;;;;;;;;;;10417739;27;20036;-55
2023/11/27 23:21:57;;;;;;;57.35;30.38;;;;;;;;;;10418789;27;20451;-54
2023/11/27 23:26:55;;;;;;;42.45;20.33;;;;;;;;;;10419486;27;20070;-56
2023/11/27 23:31:55;;;;;;;138.48;51.25;;;;;;;;;;10417784;27;20538;-55
2023/11/27 23:36:57;;;;;;;149.75;62.92;;;;;;;;;;10418766;27;20080;-53
2023/11/27 23:41:55;;;;;;;75.40;36.53;;;;;;;;;;10418445;27;20067;-56
2023/11/27 23:46:55;;;;;;;33.70;18.08;;;;;;;;;;10417157;27;20079;-50
2023/11/27 23:51:53;;;;;;;8.57;6.32;;;;;;;;;;10418571;27;20090;-53
2023/11/27 23:56:52;;;;;;;10.25;5.70;;;;;;;;;;10417693;27;20083;-56
